Time;durP1;ratioP1;P1;durP2;ratioP2;P2;SDS_P1;SDS_P2;PMS_P1;PMS_P2;Temp;Humidity;BMP_temperature;BMP_pressure;BME280_temperature;BME280_humidity;BME280_pressure;Samples;Min_cycle;Max_cycle;Signal;HPM_P1;HPM_P2
2021/12/04 00:00:50;;;;;;;6.30;3.40;;;;;;;2.51;93.63;99544.41;5070894;28;20036;-87
2021/12/04 00:03:17;;;;;;;7.90;4.00;;;;;;;2.51;93.56;99539.25;5054557;28;20048;-89
2021/12/04 00:05:47;;;;;;;3.53;3.33;;;;;;;2.51;94.03;99535.81;5068790;28;20044;-87
2021/12/04 00:08:14;;;;;;;4.25;3.45;;;;;;;2.51;93.77;99528.91;5056281;28;20065;-88
2021/12/04 00:10:41;;;;;;;5.15;3.35;;;;;;;2.51;93.78;99531.50;5055516;28;20102;-88
2021/12/04 00:13:08;;;;;;;4.07;3.25;;;;;;;2.49;94.31;99525.47;5066132;28;21011;-87
2021/12/04 00:15:34;;;;;;;7.45;3.25;;;;;;;2.50;93.88;99526.31;5072838;28;20254;-88
2021/12/04 00:18:01;;;;;;;4.70;3.10;;;;;;;2.50;94.22;99524.59;5069346;28;20127;-87
2021/12/04 00:20:30;;;;;;;4.07;3.67;;;;;;;2.48;94.28;99529.75;5071304;28;20151;-88
2021/12/04 00:23:00;;;;;;;4.63;3.58;;;;;;;2.50;94.43;99527.16;5083564;28;20037;-87
2021/12/04 00:25:28;;;;;;;6.47;3.72;;;;;;;2.48;94.45;99528.91;5053595;28;21349;-88
2021/12/04 00:27:55;;;;;;;3.15;2.83;;;;;;;2.51;94.42;99522.88;5052920;28;20048;-87
2021/12/04 00:30:22;;;;;;;4.40;3.58;;;;;;;2.53;94.10;99516.00;5049070;28;20139;-88
2021/12/04 00:32:59;;;;;;;4.32;3.55;;;;;;;2.53;94.42;99516.00;5050986;28;20118;-87
2021/12/04 00:35:36;;;;;;;4.70;4.07;;;;;;;2.48;94.32;99514.25;5069348;28;20041;-86
2021/12/04 00:49:10;;;;;;;7.75;4.13;;;;;;;2.54;94.47;99513.41;5058503;28;20035;-88
2021/12/04 00:51:42;;;;;;;5.10;3.90;;;;;;;2.55;94.44;99504.81;5069679;28;20060;-88
2021/12/04 00:54:12;;;;;;;6.97;5.07;;;;;;;2.55;94.82;99503.97;5069828;28;20041;-86
2021/12/04 00:56:40;;;;;;;5.75;4.38;;;;;;;2.55;95.83;99504.81;5069339;28;20049;-87
2021/12/04 00:59:07;;;;;;;7.38;4.68;;;;;;;2.53;95.32;99496.22;5053053;28;20147;-88
2021/12/04 01:01:35;;;;;;;5.65;4.85;;;;;;;2.53;95.67;99497.91;5065739;28;21112;-88
2021/12/04 01:04:01;;;;;;;5.07;4.47;;;;;;;2.51;96.27;99497.06;5068275;28;20053;-88
2021/12/04 01:06:31;;;;;;;7.68;5.10;;;;;;;2.50;96.05;99496.16;5070102;28;20045;-89
2021/12/04 01:08:57;;;;;;;7.22;4.80;;;;;;;2.50;95.74;99492.75;5052887;28;20045;-88
2021/12/04 01:11:24;;;;;;;5.72;5.18;;;;;;;2.52;96.21;99491.03;5067100;28;20631;-86
2021/12/04 01:13:51;;;;;;;5.05;4.50;;;;;;;2.51;96.61;99485.00;5068452;28;20167;-88
2021/12/04 01:16:17;;;;;;;6.38;4.82;;;;;;;2.50;95.81;99491.00;5071182;28;20040;-86
2021/12/04 01:18:44;;;;;;;4.63;4.15;;;;;;;2.48;96.71;99479.81;5071719;28;20062;-87
2021/12/04 01:21:11;;;;;;;4.88;4.35;;;;;;;2.46;96.79;99482.41;5068602;28;20517;-88
2021/12/04 01:23:39;;;;;;;11.82;5.20;;;;;;;2.42;97.62;99474.63;5082439;28;20041;-89
2021/12/04 01:26:05;;;;;;;7.47;6.03;;;;;;;2.39;97.90;99472.03;5050760;28;20072;-88
2021/12/04 01:28:33;;;;;;;7.03;4.72;;;;;;;2.36;98.23;99478.03;5083081;28;20048;-88
2021/12/04 01:30:59;;;;;;;5.38;4.88;;;;;;;2.35;98.87;99468.56;5070918;28;20101;-88
2021/12/04 01:33:26;;;;;;;6.13;5.03;;;;;;;2.33;98.77;99465.09;5047555;28;20037;-87
2021/12/04 01:35:53;;;;;;;4.95;4.50;;;;;;;2.33;99.02;99459.91;5052734;28;20143;-88
2021/12/04 01:38:19;;;;;;;5.68;4.45;;;;;;;2.34;99.05;99461.66;5054650;28;20045;-86
2021/12/04 01:40:46;;;;;;;7.13;5.40;;;;;;;2.35;99.09;99463.41;5054813;28;20053;-88
2021/12/04 01:43:12;;;;;;;5.07;4.57;;;;;;;2.36;98.65;99456.50;5072305;28;20311;-88
2021/12/04 01:45:39;;;;;;;7.20;5.38;;;;;;;2.37;98.43;99453.06;5051651;28;20395;-89
2021/12/04 01:48:06;;;;;;;10.77;5.32;;;;;;;2.37;98.48;99453.91;5048328;28;20143;-88
2021/12/04 01:50:35;;;;;;;6.43;4.60;;;;;;;2.41;98.28;99453.09;5053416;28;20606;-88
2021/12/04 01:53:02;;;;;;;6.53;4.60;;;;;;;2.44;98.15;99441.91;5049071;28;20073;-88
2021/12/04 01:55:33;;;;;;;8.95;4.82;;;;;;;2.44;97.55;99442.78;5049416;28;20129;-88
2021/12/04 01:58:01;;;;;;;6.15;4.53;;;;;;;2.46;97.38;99440.19;5056227;28;20130;-88
2021/12/04 02:00:35;;;;;;;5.47;4.60;;;;;;;2.46;97.34;99435.91;5087701;28;20048;-87
2021/12/04 02:03:03;;;;;;;;;;;;;;;2.48;96.43;99434.16;5057950;28;20093;-88
2021/12/04 02:05:31;;;;;;;5.90;3.75;;;;;;;2.50;96.52;99435.91;5077089;28;19928;-89
2021/12/04 02:07:58;;;;;;;4.93;4.43;;;;;;;2.49;96.23;99440.22;5076024;28;20640;-88
2021/12/04 02:10:24;;;;;;;6.68;4.47;;;;;;;2.50;96.26;99452.25;5076172;28;20040;-87
2021/12/04 02:12:51;;;;;;;11.00;4.65;;;;;;;2.53;96.13;99452.28;5072293;28;20063;-87
2021/12/04 02:15:20;;;;;;;5.65;5.00;;;;;;;2.51;95.52;99438.50;5074548;28;20480;-88
2021/12/04 02:17:46;;;;;;;4.78;4.28;;;;;;;2.54;95.50;99443.66;5058451;28;20051;-87
2021/12/04 02:20:19;;;;;;;4.15;3.53;;;;;;;2.54;95.75;99442.81;5076837;28;20080;-87
2021/12/04 02:22:47;;;;;;;4.43;4.03;;;;;;;2.58;94.99;99436.78;5074746;28;20419;-88
2021/12/04 02:25:15;;;;;;;4.88;4.45;;;;;;;2.55;94.78;99437.63;5089173;28;20040;-89
2021/12/04 02:27:42;;;;;;;7.53;6.82;;;;;;;2.57;95.48;99429.88;5061156;28;20040;-88
2021/12/04 02:30:13;;;;;;;4.57;4.10;;;;;;;2.57;95.04;99423.03;5057299;28;20036;-88
2021/12/04 02:32:40;;;;;;;6.20;4.18;;;;;;;2.58;94.87;99419.59;5055097;28;20042;-88
2021/12/04 02:35:09;;;;;;;7.22;4.18;;;;;;;2.61;95.03;99429.91;5071276;28;20049;-85
2021/12/04 02:37:39;;;;;;;4.82;4.22;;;;;;;2.62;94.71;99430.78;5071095;28;20048;-86
2021/12/04 02:40:10;;;;;;;5.20;4.60;;;;;;;2.63;95.08;99417.88;5074294;28;20123;-86
2021/12/04 02:42:37;;;;;;;7.38;4.75;;;;;;;2.64;94.54;99414.41;5070060;28;20147;-87
2021/12/04 02:45:08;;;;;;;4.80;4.35;;;;;;;2.67;94.91;99410.13;5075312;28;20122;-86
2021/12/04 02:47:35;;;;;;;5.10;4.60;;;;;;;2.68;94.70;99404.97;5075149;28;20514;-89
2021/12/04 02:50:05;;;;;;;4.22;3.80;;;;;;;2.69;94.64;99408.44;5068456;28;20102;-88
2021/12/04 02:52:32;;;;;;;4.15;3.80;;;;;;;2.71;94.66;99404.09;5034094;28;20128;-87
2021/12/04 02:54:59;;;;;;;5.65;4.53;;;;;;;2.70;94.30;99412.72;5049639;28;20474;-88
2021/12/04 02:57:26;;;;;;;5.97;4.13;;;;;;;2.69;94.24;99409.28;5072598;28;20045;-89
2021/12/04 02:59:55;;;;;;;4.90;4.38;;;;;;;2.71;94.29;99407.56;5067292;28;20041;-88
2021/12/04 03:02:23;;;;;;;4.35;3.95;;;;;;;2.73;94.69;99399.81;5069864;28;20040;-88
2021/12/04 03:04:59;;;;;;;8.65;4.97;;;;;;;2.72;94.39;99388.59;5078242;28;20047;-88
2021/12/04 03:07:27;;;;;;;5.80;3.92;;;;;;;2.73;94.32;99394.66;5091008;28;21836;-89
2021/12/04 03:09:54;;;;;;;4.65;4.25;;;;;;;2.76;94.44;99389.47;5053738;28;20058;-88
2021/12/04 03:12:23;;;;;;;4.45;4.05;;;;;;;2.75;94.31;99387.75;5058482;28;20441;-88
2021/12/04 03:14:52;;;;;;;5.03;4.32;;;;;;;2.73;94.36;99382.59;5054549;28;20055;-87
2021/12/04 03:17:20;;;;;;;4.90;4.50;;;;;;;2.74;94.78;99380.88;5072341;28;20530;-87
2021/12/04 03:19:49;;;;;;;5.40;4.70;;;;;;;2.76;94.43;99380.00;5057628;28;20491;-88
2021/12/04 03:22:17;;;;;;;6.15;4.75;;;;;;;2.76;94.58;99372.25;5068048;28;20439;-88
2021/12/04 03:24:44;;;;;;;7.00;4.80;;;;;;;2.73;94.20;99363.66;5071456;28;20074;-88
2021/12/04 03:27:13;;;;;;;7.43;4.60;;;;;;;2.72;94.64;99361.91;5054553;28;20055;-86
2021/12/04 03:29:42;;;;;;;8.93;5.13;;;;;;;2.72;94.09;99356.75;5056197;28;20471;-86
2021/12/04 03:32:45;;;;;;;7.50;4.43;;;;;;;2.73;94.15;99348.13;5071169;28;20471;-87
2021/12/04 03:35:21;;;;;;;5.50;4.22;;;;;;;2.73;93.94;99342.97;5061853;28;20052;-88
2021/12/04 03:40:39;;;;;;;4.85;4.32;;;;;;;2.75;93.95;99336.06;5070803;28;20021;-88
2021/12/04 03:43:10;;;;;;;4.78;4.40;;;;;;;2.70;93.82;99320.56;5090669;28;20036;-87
2021/12/04 03:45:41;;;;;;;6.15;3.88;;;;;;;2.67;93.47;99330.03;5070418;28;20397;-88
2021/12/04 03:48:11;;;;;;;5.75;5.15;;;;;;;2.62;93.80;99323.13;5053404;28;20090;-88
2021/12/04 03:50:41;;;;;;;4.55;3.45;;;;;;;2.61;93.80;99336.06;5071229;28;20060;-85
2021/12/04 03:53:07;;;;;;;4.75;4.28;;;;;;;2.60;94.14;99326.56;5068884;28;20627;-86
2021/12/04 03:55:34;;;;;;;4.88;4.47;;;;;;;2.60;94.28;99322.25;5056362;28;20052;-87
2021/12/04 03:58:01;;;;;;;6.78;4.32;;;;;;;2.61;93.83;99324.00;5073088;28;20036;-88
2021/12/04 04:00:28;;;;;;;5.22;3.45;;;;;;;2.61;94.23;99316.25;5069459;28;20048;-88
2021/12/04 04:02:59;;;;;;;5.10;3.95;;;;;;;2.64;93.94;99321.41;5084180;28;20286;-88
2021/12/04 04:05:27;;;;;;;4.10;3.72;;;;;;;2.67;94.08;99324.88;5071886;28;20048;-88
2021/12/04 04:07:54;;;;;;;5.32;4.18;;;;;;;2.69;93.99;99320.56;5071424;28;20040;-86
2021/12/04 04:10:21;;;;;;;5.82;2.97;;;;;;;2.69;93.47;99316.25;5069688;28;20131;-87
2021/12/04 04:12:49;;;;;;;4.28;3.95;;;;;;;2.70;94.10;99310.22;5068860;28;20045;-87
2021/12/04 04:15:16;;;;;;;4.57;3.90;;;;;;;2.71;93.47;99308.50;5084727;28;20052;-86
2021/12/04 04:17:43;;;;;;;4.72;4.30;;;;;;;2.70;93.49;99315.41;5068366;28;20127;-88
2021/12/04 04:20:16;;;;;;;5.60;4.20;;;;;;;2.72;93.63;99311.09;5071858;28;20076;-88
2021/12/04 04:22:45;;;;;;;4.55;3.28;;;;;;;2.72;93.72;99313.66;5069713;28;20044;-88
2021/12/04 04:25:15;;;;;;;4.38;3.97;;;;;;;2.73;93.08;99305.06;5066495;28;20525;-87
2021/12/04 04:27:42;;;;;;;8.68;4.03;;;;;;;2.76;93.19;99306.78;5090120;28;20533;-88
2021/12/04 04:30:14;;;;;;;4.30;3.15;;;;;;;2.75;93.37;99300.78;5067967;28;20071;-87
2021/12/04 04:32:43;;;;;;;5.57;4.45;;;;;;;2.77;93.61;99305.94;5051719;28;20510;-87
2021/12/04 04:35:13;;;;;;;4.22;3.75;;;;;;;2.78;93.18;99303.34;5046952;28;20052;-88
2021/12/04 04:37:47;;;;;;;4.47;3.47;;;;;;;2.79;93.21;99306.78;5070531;28;20108;-86
2021/12/04 04:57:22;;;;;;;9.52;4.55;;;;;;;2.79;92.69;99306.78;5072807;28;20048;-88
2021/12/04 04:59:58;;;;;;;4.65;3.70;;;;;;;2.85;92.93;99288.69;5071823;28;21469;-87
2021/12/04 05:02:34;;;;;;;3.42;3.08;;;;;;;2.87;93.12;99287.00;5052150;28;20077;-87
2021/12/04 05:10:52;;;;;;;6.35;3.40;;;;;;;2.85;92.44;99282.69;5071496;28;20110;-87
2021/12/04 05:13:20;;;;;;;4.82;3.40;;;;;;;2.85;92.93;99286.13;5053720;28;20040;-88
2021/12/04 05:15:57;;;;;;;5.03;3.88;;;;;;;2.84;93.12;99286.97;5069763;28;20127;-88
2021/12/04 05:18:33;;;;;;;4.68;4.30;;;;;;;2.84;93.07;99283.53;5074039;28;20931;-88
2021/12/04 05:21:07;;;;;;;4.03;3.35;;;;;;;2.83;93.47;99286.97;5070126;28;20064;-88
2021/12/04 05:24:00;;;;;;;;;;;;;;;2.82;93.58;99286.13;5073330;28;20062;-88
2021/12/04 05:26:29;;;;;;;4.93;3.75;;;;;;;2.81;93.39;99285.25;5080107;28;19927;-88
2021/12/04 05:28:59;;;;;;;4.95;4.07;;;;;;;2.83;93.46;99281.81;5073417;28;20048;-88
2021/12/04 05:31:27;;;;;;;5.32;4.03;;;;;;;2.81;93.08;99274.91;5073346;28;20093;-87
2021/12/04 05:33:54;;;;;;;4.35;3.35;;;;;;;2.82;93.43;99262.88;5073611;28;20036;-88
2021/12/04 05:36:21;;;;;;;4.30;3.75;;;;;;;2.80;93.33;99272.31;5077446;28;20068;-88
2021/12/04 05:38:47;;;;;;;5.22;4.57;;;;;;;2.79;93.28;99276.66;5076956;28;20079;-88
2021/12/04 05:41:16;;;;;;;4.28;3.88;;;;;;;2.80;93.34;99274.91;5074504;28;20398;-87
2021/12/04 05:43:42;;;;;;;4.70;4.15;;;;;;;2.80;93.00;99267.16;5067820;28;20612;-88
2021/12/04 05:46:13;;;;;;;5.97;4.13;;;;;;;2.78;93.42;99262.00;5056546;28;20129;-88
2021/12/04 05:48:46;;;;;;;5.32;3.78;;;;;;;2.78;93.57;99268.91;5090529;28;20067;-87
2021/12/04 05:51:24;;;;;;;3.40;3.10;;;;;;;2.75;93.61;99264.59;5059399;28;20454;-88
2021/12/04 05:54:07;;;;;;;5.75;3.53;;;;;;;2.72;93.85;99264.56;5055888;28;20048;-88
2021/12/04 05:56:36;;;;;;;3.92;3.72;;;;;;;2.70;94.07;99271.47;5074928;28;20059;-88
2021/12/04 05:59:04;;;;;;;3.75;3.42;;;;;;;2.69;94.16;99274.06;5058348;28;20163;-87
2021/12/04 06:01:31;;;;;;;5.72;4.70;;;;;;;2.68;94.13;99270.59;5076571;28;20075;-88
2021/12/04 06:03:58;;;;;;;8.77;3.97;;;;;;;2.69;94.19;99274.06;5073366;28;20037;-87
2021/12/04 06:06:25;;;;;;;4.53;4.13;;;;;;;2.70;94.33;99279.22;5076060;28;20056;-87
2021/12/04 06:08:52;;;;;;;4.97;4.05;;;;;;;2.72;94.26;99277.50;5053697;28;20047;-88
2021/12/04 06:11:18;;;;;;;6.95;4.32;;;;;;;2.76;94.07;99293.88;5058562;28;20896;-86
2021/12/04 06:13:46;;;;;;;5.35;4.50;;;;;;;2.76;94.20;99293.88;5057479;28;20088;-88
2021/12/04 06:16:14;;;;;;;8.52;5.70;;;;;;;2.79;94.23;99289.56;5051745;28;20535;-89
2021/12/04 06:18:42;;;;;;;4.75;4.35;;;;;;;2.83;94.22;99300.78;5059074;28;20143;-88
2021/12/04 06:23:53;;;;;;;4.97;4.55;;;;;;;2.86;94.17;99295.59;5056037;28;20032;-88
2021/12/04 06:26:20;;;;;;;5.45;3.90;;;;;;;2.87;94.28;99288.69;5074831;28;20044;-87
2021/12/04 06:28:47;;;;;;;5.43;4.65;;;;;;;2.89;94.14;99294.75;5056049;28;20044;-88
2021/12/04 06:31:14;;;;;;;4.05;3.75;;;;;;;2.91;94.09;99293.03;5074679;28;20048;-87
2021/12/04 06:33:46;;;;;;;4.57;4.13;;;;;;;2.91;94.30;99301.63;5075507;28;20506;-88
2021/12/04 06:36:14;;;;;;;6.78;5.30;;;;;;;2.93;93.66;99299.03;5075431;28;20522;-87
2021/12/04 06:38:41;;;;;;;5.88;5.00;;;;;;;2.91;93.64;99298.19;5075994;28;20055;-88
2021/12/04 06:41:08;;;;;;;4.47;4.00;;;;;;;2.89;93.51;99295.59;5074472;28;20083;-88
2021/12/04 06:43:37;;;;;;;6.90;4.65;;;;;;;2.90;93.64;99296.47;5072197;28;20036;-88
2021/12/04 06:46:06;;;;;;;4.95;3.90;;;;;;;2.90;93.37;99297.31;5078400;28;20052;-87
2021/12/04 06:48:42;;;;;;;4.80;4.40;;;;;;;2.91;93.83;99304.22;5055088;28;20064;-88
2021/12/04 06:51:16;;;;;;;6.10;5.25;;;;;;;2.92;93.85;99295.59;5077920;28;20051;-88
2021/12/04 06:53:47;;;;;;;4.75;4.30;;;;;;;2.94;93.41;99293.88;5078438;28;20055;-88
2021/12/04 06:56:15;;;;;;;6.05;4.70;;;;;;;2.92;93.67;99303.38;5072106;28;20049;-87
2021/12/04 06:58:42;;;;;;;4.15;3.85;;;;;;;2.94;93.59;99298.19;5092618;28;20143;-88
2021/12/04 07:01:11;;;;;;;4.75;4.25;;;;;;;2.94;93.50;99296.44;5074176;28;20086;-88
2021/12/04 07:03:39;;;;;;;4.97;4.38;;;;;;;2.95;93.68;99292.16;5078252;28;20052;-88
2021/12/04 07:06:06;;;;;;;6.53;5.80;;;;;;;2.97;93.81;99291.31;5076060;28;20426;-86
2021/12/04 07:08:32;;;;;;;5.88;5.20;;;;;;;2.96;93.51;99294.75;5071213;28;20044;-86
2021/12/04 07:10:59;;;;;;;5.80;4.93;;;;;;;2.96;93.75;99292.16;5093727;28;20048;-88
2021/12/04 07:13:26;;;;;;;4.90;4.22;;;;;;;2.97;93.41;99287.84;5070662;28;20079;-87
2021/12/04 07:16:01;;;;;;;6.75;5.90;;;;;;;2.97;93.24;99291.31;5070814;28;20098;-87
2021/12/04 07:18:27;;;;;;;6.22;5.63;;;;;;;2.95;93.03;99290.44;5059320;28;20105;-87
2021/12/04 07:20:54;;;;;;;4.72;4.32;;;;;;;2.96;93.72;99293.88;5070712;28;20047;-87
2021/12/04 07:23:21;;;;;;;5.50;4.80;;;;;;;2.95;93.49;99297.34;5053478;28;20104;-87
2021/12/04 07:25:48;;;;;;;5.32;4.82;;;;;;;2.96;93.50;99304.22;5052195;28;20058;-87
2021/12/04 07:28:15;;;;;;;6.03;5.43;;;;;;;2.97;93.77;99298.19;5058149;28;20032;-88
2021/12/04 07:30:42;;;;;;;7.05;4.80;;;;;;;2.97;93.17;99299.06;5057754;28;20056;-87
2021/12/04 07:33:08;;;;;;;6.00;5.50;;;;;;;2.96;93.71;99297.31;5050967;28;20045;-87
2021/12/04 07:35:35;;;;;;;8.20;5.90;;;;;;;2.97;93.84;99304.22;5056800;28;20066;-87
2021/12/04 07:38:02;;;;;;;6.70;5.55;;;;;;;2.94;93.83;99293.88;5056473;28;20044;-87
2021/12/04 07:40:29;;;;;;;8.45;6.43;;;;;;;2.94;93.71;99291.28;5074079;28;20551;-87
2021/12/04 07:42:56;;;;;;;5.05;4.55;;;;;;;2.95;93.52;99287.84;5070646;28;20036;-87
2021/12/04 07:45:22;;;;;;;6.55;5.57;;;;;;;2.96;93.83;99289.56;5070845;28;20064;-88
2021/12/04 07:47:49;;;;;;;6.38;4.63;;;;;;;2.96;93.73;99291.31;5075244;28;20142;-85
2021/12/04 07:50:16;;;;;;;7.35;5.70;;;;;;;2.94;93.65;99293.00;5056385;28;20049;-87
2021/12/04 07:52:43;;;;;;;5.22;4.72;;;;;;;2.95;93.66;99299.91;5072465;28;20473;-86
2021/12/04 07:55:10;;;;;;;5.95;5.15;;;;;;;2.94;93.58;99293.00;5054380;28;20048;-88
2021/12/04 07:57:38;;;;;;;6.22;4.93;;;;;;;2.93;94.00;99297.34;5071341;28;20051;-88
2021/12/04 08:00:12;;;;;;;8.57;6.03;;;;;;;2.87;93.95;99288.69;5070930;28;20054;-87
2021/12/04 08:02:41;;;;;;;5.28;4.78;;;;;;;2.90;94.34;99286.97;5036516;28;20054;-87
2021/12/04 08:05:09;;;;;;;5.55;4.88;;;;;;;2.92;94.05;99303.38;5087884;28;20538;-87
2021/12/04 08:07:37;;;;;;;6.60;5.63;;;;;;;2.92;94.59;99292.13;5061636;28;20387;-87
2021/12/04 08:10:06;;;;;;;12.90;5.60;;;;;;;2.91;94.58;99293.03;5051497;28;20051;-87
2021/12/04 08:12:33;;;;;;;6.05;5.25;;;;;;;2.90;94.40;99292.16;5052771;28;20113;-88
2021/12/04 08:14:59;;;;;;;7.05;5.95;;;;;;;2.91;94.47;99291.28;5056263;28;20047;-87
2021/12/04 08:17:26;;;;;;;8.05;5.40;;;;;;;2.89;94.43;99293.00;5072501;28;20083;-88
2021/12/04 08:19:54;;;;;;;6.88;5.88;;;;;;;2.92;94.42;99295.59;5053496;28;20056;-87
2021/12/04 08:22:20;;;;;;;8.48;6.15;;;;;;;2.92;95.04;99294.72;5054296;28;20052;-88
2021/12/04 08:24:48;;;;;;;6.18;5.68;;;;;;;2.95;94.64;99297.34;5069439;28;20055;-86
2021/12/04 08:27:18;;;;;;;8.20;5.80;;;;;;;2.96;94.79;99304.22;5073757;28;20050;-87
2021/12/04 08:29:45;;;;;;;7.72;6.18;;;;;;;2.97;94.77;99293.00;5086762;28;20725;-88
2021/12/04 08:32:12;;;;;;;7.72;6.93;;;;;;;3.01;94.57;99294.72;5056689;28;20043;-85
2021/12/04 08:34:39;;;;;;;8.15;7.05;;;;;;;3.02;94.41;99299.03;5071309;28;20514;-85
2021/12/04 08:37:07;;;;;;;8.55;6.72;;;;;;;3.05;94.38;99296.47;5072534;28;20048;-87
2021/12/04 08:39:34;;;;;;;7.82;6.40;;;;;;;3.06;94.39;99287.81;5069730;28;20094;-86
2021/12/04 08:42:01;;;;;;;9.50;7.22;;;;;;;3.14;94.34;99287.81;5068130;28;20040;-87
2021/12/04 08:44:29;;;;;;;8.98;6.32;;;;;;;3.21;94.08;99293.88;5070831;28;20122;-88
2021/12/04 08:46:56;;;;;;;8.45;7.28;;;;;;;3.23;94.12;99290.41;5072855;28;20572;-87
2021/12/04 08:49:24;;;;;;;8.00;6.70;;;;;;;3.23;94.23;99292.13;5070771;28;20394;-86
2021/12/04 08:51:53;;;;;;;9.20;7.10;;;;;;;3.25;94.39;99293.00;5072312;28;20543;-87
2021/12/04 08:54:20;;;;;;;10.85;7.65;;;;;;;3.22;94.27;99296.47;5047133;28;20044;-87
2021/12/04 08:56:47;;;;;;;9.73;7.35;;;;;;;3.24;94.60;99294.72;5047780;28;20534;-87
2021/12/04 08:59:13;;;;;;;11.52;7.28;;;;;;;3.26;94.26;99297.28;5087683;28;20487;-87
2021/12/04 09:01:44;;;;;;;7.47;5.90;;;;;;;3.27;94.23;99291.25;5068691;28;20080;-88
2021/12/04 09:04:19;;;;;;;7.63;6.82;;;;;;;3.19;94.10;99288.69;5090287;28;20882;-87
2021/12/04 09:06:47;;;;;;;9.27;7.05;;;;;;;3.20;94.15;99280.06;5055441;28;20181;-86
2021/12/04 09:09:16;;;;;;;10.00;7.25;;;;;;;3.20;94.70;99282.66;5088536;28;20399;-86
2021/12/04 09:11:50;;;;;;;10.80;6.60;;;;;;;3.25;94.43;99278.34;5074309;28;20070;-88
2021/12/04 09:14:21;;;;;;;13.45;7.03;;;;;;;3.28;94.09;99282.66;5067956;28;20054;-87
2021/12/04 09:16:52;;;;;;;8.45;6.57;;;;;;;3.32;94.04;99286.94;5069013;28;20044;-86
2021/12/04 09:19:20;;;;;;;15.73;10.32;;;;;;;3.37;93.37;99286.97;5070736;28;20080;-87
2021/12/04 09:21:47;;;;;;;11.80;7.07;;;;;;;3.41;93.32;99284.34;5050673;28;20381;-87
2021/12/04 09:24:16;;;;;;;8.05;6.50;;;;;;;3.43;93.42;99277.44;5048602;28;20537;-85
2021/12/04 09:26:54;;;;;;;10.43;6.40;;;;;;;3.48;93.39;99267.06;5066936;28;20044;-86
2021/12/04 09:29:35;;;;;;;10.88;6.20;;;;;;;3.58;92.90;99275.69;5064008;28;20051;-86
2021/12/04 09:32:28;;;;;;;9.23;6.75;;;;;;;3.65;92.41;99272.22;5068905;28;20051;-85
2021/12/04 09:35:12;;;;;;;8.55;6.72;;;;;;;3.72;92.05;99279.09;5096322;28;20086;-87
2021/12/04 09:59:08;;;;;;;9.70;6.82;;;;;;;3.86;90.45;99276.47;5051846;28;20044;-87
2021/12/04 10:02:37;;;;;;;6.60;5.50;;;;;;;4.43;87.24;99242.50;5070772;28;20515;-87
2021/12/04 10:05:21;;;;;;;6.40;5.40;;;;;;;4.36;86.35;99238.22;5057125;28;20048;-88
2021/12/04 10:13:50;;;;;;;5.43;4.90;;;;;;;4.40;87.13;99231.28;5070721;28;20048;-87
2021/12/04 10:16:40;;;;;;;6.68;5.50;;;;;;;4.39;86.31;99227.81;5070002;28;20453;-86
2021/12/04 10:19:21;;;;;;;5.05;4.38;;;;;;;4.37;86.76;99218.34;5074774;28;20052;-88
2021/12/04 10:22:13;;;;;;;5.68;4.35;;;;;;;4.39;86.37;99214.88;5055231;28;20057;-86
2021/12/04 10:24:52;;;;;;;5.30;4.80;;;;;;;4.41;86.42;99210.53;5072066;28;20051;-87
2021/12/04 10:33:23;;;;;;;5.18;4.72;;;;;;;4.70;85.02;99206.88;5071038;28;20035;-87
2021/12/04 10:35:56;;;;;;;4.95;4.55;;;;;;;4.74;84.70;99208.56;5071722;28;20063;-86
2021/12/04 10:38:31;;;;;;;5.43;4.20;;;;;;;4.75;84.83;99209.44;5077425;28;20068;-86
2021/12/04 10:40:58;;;;;;;6.50;4.53;;;;;;;4.79;84.56;99192.97;5071795;28;20106;-87
2021/12/04 10:43:29;;;;;;;4.38;3.80;;;;;;;4.77;84.10;99192.13;5072496;28;20063;-87
2021/12/04 10:46:01;;;;;;;4.80;4.32;;;;;;;4.85;84.33;99181.69;5082460;28;20048;-88
2021/12/04 10:48:32;;;;;;;4.90;4.07;;;;;;;4.87;84.22;99185.13;5086595;28;20043;-87
2021/12/04 10:51:08;;;;;;;6.75;4.63;;;;;;;4.97;83.07;99184.16;5076468;28;20070;-86
2021/12/04 10:53:47;;;;;;;4.13;3.80;;;;;;;4.98;83.29;99183.31;5073133;28;20044;-87
2021/12/04 10:56:26;;;;;;;4.75;4.28;;;;;;;5.09;82.75;99171.06;5047179;28;20052;-88
2021/12/04 11:01:55;;;;;;;5.68;4.40;;;;;;;5.06;81.71;99180.59;5085948;27;20043;-88
2021/12/04 11:04:33;;;;;;;4.95;4.35;;;;;;;5.04;81.58;99167.66;5078792;28;20036;-88
2021/12/04 11:18:47;;;;;;;6.18;5.03;;;;;;;5.17;81.15;99141.59;5051617;28;21283;-86
2021/12/04 11:27:57;;;;;;;7.47;4.85;;;;;;;4.99;80.75;99120.16;5052116;28;20098;-87
2021/12/04 11:36:20;;;;;;;7.18;4.57;;;;;;;4.76;81.35;99110.91;5051186;28;19984;-83
2021/12/04 11:41:34;;;;;;;4.28;3.70;;;;;;;4.57;81.95;99102.44;5052172;28;20073;-84
2021/12/04 11:44:05;;;;;;;5.60;5.05;;;;;;;4.52;82.47;99103.38;5051859;28;20052;-84
2021/12/04 11:46:44;;;;;;;3.42;3.13;;;;;;;4.49;82.84;99111.19;5051270;28;20044;-84
2021/12/04 11:49:24;;;;;;;6.65;4.55;;;;;;;4.45;82.65;99094.78;5051860;28;20052;-84
2021/12/04 11:52:21;;;;;;;4.53;3.92;;;;;;;4.44;83.12;99096.50;5036830;28;20136;-84
2021/12/04 11:54:57;;;;;;;6.38;4.95;;;;;;;4.41;83.57;99085.34;5048886;28;20053;-84
2021/12/04 11:57:38;;;;;;;5.18;4.68;;;;;;;4.41;84.03;99082.75;5064907;28;20352;-83
2021/12/04 12:00:21;;;;;;;7.75;4.90;;;;;;;4.44;84.03;99086.13;5049915;28;20057;-87
2021/12/04 12:02:48;;;;;;;5.55;4.85;;;;;;;4.60;83.64;99089.47;5068786;28;20060;-83
2021/12/04 12:05:25;;;;;;;7.93;6.18;;;;;;;4.65;82.88;99086.81;5074738;28;20471;-82
2021/12/04 12:07:58;;;;;;;5.75;4.93;;;;;;;4.73;82.40;99066.88;5071386;28;20054;-83
2021/12/04 12:10:27;;;;;;;5.15;4.70;;;;;;;4.76;82.02;99066.84;5059225;28;20105;-84
2021/12/04 12:13:05;;;;;;;6.47;4.82;;;;;;;4.70;82.53;99068.63;5079191;28;20131;-83
2021/12/04 12:15:35;;;;;;;5.10;4.60;;;;;;;4.62;82.41;99071.31;5075499;28;20048;-84
2021/12/04 12:18:15;;;;;;;6.13;3.85;;;;;;;4.51;83.23;99065.34;5097290;28;20115;-88
2021/12/04 12:20:46;;;;;;;5.07;3.95;;;;;;;4.60;83.28;99065.25;5074968;28;20051;-84
2021/12/04 12:23:17;;;;;;;5.90;3.58;;;;;;;4.72;83.13;99057.38;5068722;28;20192;-83
2021/12/04 12:25:59;;;;;;;4.13;3.72;;;;;;;4.86;81.50;99046.84;5082181;28;20048;-83
2021/12/04 12:37:31;;;;;;;3.22;2.88;;;;;;;4.68;81.18;99022.00;5070124;28;20036;-87
2021/12/04 12:40:08;;;;;;;3.03;2.83;;;;;;;4.56;81.54;99025.59;5060495;28;20044;-85
2021/12/04 12:42:44;;;;;;;3.25;2.63;;;;;;;4.38;82.34;99021.44;5060212;28;20135;-83
2021/12/04 12:45:34;;;;;;;2.55;2.28;;;;;;;4.32;82.77;99010.28;5047247;28;20052;-85
2021/12/04 12:48:13;;;;;;;3.35;2.20;;;;;;;4.20;83.23;98998.28;5078088;28;20098;-84
2021/12/04 12:50:48;;;;;;;2.08;1.98;;;;;;;4.11;83.79;99007.88;5065199;28;20055;-84
2021/12/04 12:53:28;;;;;;;3.33;2.53;;;;;;;4.00;84.38;99008.84;5044007;28;20049;-85
2021/12/04 12:56:13;;;;;;;2.97;2.67;;;;;;;3.86;85.02;99008.97;5059225;28;20049;-83
2021/12/04 12:58:46;;;;;;;3.35;2.38;;;;;;;3.74;85.67;99008.22;5058262;28;20060;-85
2021/12/04 13:13:43;;;;;;;2.50;2.30;;;;;;;3.46;87.48;99021.31;5056433;28;20032;-88
2021/12/04 13:16:22;;;;;;;2.83;2.55;;;;;;;3.56;87.55;99016.97;5104546;28;20103;-86
2021/12/04 13:18:59;;;;;;;2.97;2.60;;;;;;;3.67;87.08;99003.09;5104219;28;20058;-88
2021/12/04 13:21:27;;;;;;;6.28;3.20;;;;;;;3.74;86.47;98997.84;5108101;28;20081;-88
2021/12/04 13:23:57;;;;;;;3.50;2.72;;;;;;;3.80;86.36;98984.00;5119900;28;20043;-86
2021/12/04 13:26:32;;;;;;;4.22;3.45;;;;;;;3.87;86.39;98977.03;5111102;28;20038;-86
2021/12/04 13:29:04;;;;;;;4.85;2.83;;;;;;;3.89;85.92;98964.94;5107940;28;20079;-90
2021/12/04 13:31:33;;;;;;;5.15;3.50;;;;;;;3.90;86.01;98958.91;5092462;28;20066;-86
2021/12/04 13:34:08;;;;;;;3.45;2.97;;;;;;;3.94;85.97;98952.81;5090046;28;20044;-86
2021/12/04 13:36:36;;;;;;;3.30;3.00;;;;;;;3.91;85.52;98952.81;5095223;28;20170;-86
2021/12/04 13:39:14;;;;;;;2.55;2.35;;;;;;;3.92;85.67;98945.03;5092955;28;20035;-86
2021/12/04 13:41:47;;;;;;;2.40;2.17;;;;;;;3.91;85.69;98934.72;5084379;28;20394;-85
2021/12/04 13:44:25;;;;;;;3.80;2.05;;;;;;;3.87;85.30;98941.66;5081280;28;20550;-86
2021/12/04 13:47:11;;;;;;;2.60;2.17;;;;;;;3.84;85.22;98920.13;5077180;28;20539;-86
2021/12/04 13:49:57;;;;;;;1.92;1.83;;;;;;;3.84;85.36;98907.19;5061599;28;20139;-86
2021/12/04 13:52:28;;;;;;;2.70;2.50;;;;;;;3.82;84.98;98914.97;5080908;28;20040;-85
2021/12/04 13:55:10;;;;;;;3.28;2.33;;;;;;;3.77;85.07;98909.81;5058778;28;20063;-86
2021/12/04 13:57:42;;;;;;;1.85;1.75;;;;;;;3.71;85.02;98914.19;5080678;28;20068;-85
2021/12/04 14:00:13;;;;;;;1.52;1.42;;;;;;;3.68;85.15;98917.66;5077700;28;20143;-86
2021/12/04 14:02:49;;;;;;;2.30;2.10;;;;;;;3.68;85.36;98920.25;5087472;28;20036;-88